Time;durP1;ratioP1;P1;durP2;ratioP2;P2;SDS_P1;SDS_P2;PMS_P1;PMS_P2;Temp;Humidity;BMP_temperature;BMP_pressure;BME280_temperature;BME280_humidity;BME280_pressure;Samples;Min_cycle;Max_cycle;Signal;HPM_P1;HPM_P2
2022/05/03 00:03:20;;;;;;;5.57;3.78;;;;;;;8.84;54.56;100646.38;8696270;33;20570;-74
2022/05/03 00:08:33;;;;;;;5.63;3.80;;;;;;;8.96;53.86;100657.22;8699526;33;20216;-75
2022/05/03 00:13:44;;;;;;;4.93;3.10;;;;;;;8.68;53.56;100643.06;8701582;33;20257;-74
2022/05/03 00:18:49;;;;;;;5.20;3.60;;;;;;;8.65;54.76;100642.44;8700439;33;20613;-75
2022/05/03 00:23:52;;;;;;;4.53;2.85;;;;;;;8.86;54.49;100640.94;8701812;33;20323;-75
2022/05/03 00:28:57;;;;;;;5.05;3.08;;;;;;;8.85;53.05;100633.84;8703879;33;20408;-74
2022/05/03 00:34:02;;;;;;;3.35;2.67;;;;;;;8.92;51.16;100632.47;8698460;33;20158;-73
2022/05/03 00:39:05;;;;;;;4.25;2.88;;;;;;;9.11;50.42;100636.53;8696697;33;20441;-74
2022/05/03 00:50:00;;;;;;;6.13;2.78;;;;;;;8.98;51.03;100628.50;8672879;33;20213;-75
2022/05/03 00:55:34;;;;;;;3.85;3.20;;;;;;;9.06;50.55;100632.34;8702904;33;20154;-75
2022/05/03 01:00:47;;;;;;;4.22;2.53;;;;;;;9.01;50.47;100631.81;8713974;33;20224;-72
2022/05/03 01:06:13;;;;;;;3.60;2.45;;;;;;;9.05;50.86;100633.31;8707816;33;20414;-73
2022/05/03 01:11:35;;;;;;;5.15;2.90;;;;;;;9.01;51.09;100634.47;8702216;33;20924;-75
2022/05/03 01:16:47;;;;;;;3.60;2.72;;;;;;;8.99;51.62;100638.25;8702964;33;20426;-75
2022/05/03 01:22:09;;;;;;;3.70;3.08;;;;;;;8.89;51.54;100638.03;8694164;33;20440;-73
2022/05/03 01:27:54;;;;;;;4.72;2.78;;;;;;;8.82;51.98;100626.88;8691600;33;20134;-75
2022/05/03 01:33:08;;;;;;;3.30;2.95;;;;;;;8.85;51.16;100620.44;8688812;33;20219;-75
2022/05/03 01:38:24;;;;;;;5.85;2.78;;;;;;;8.84;51.69;100618.75;8689210;33;21066;-75
2022/05/03 01:43:48;;;;;;;4.47;3.08;;;;;;;8.74;52.32;100613.16;8687318;33;20480;-75
2022/05/03 01:55:04;;;;;;;3.60;2.67;;;;;;;8.65;52.31;100621.00;8687278;33;20141;-74
2022/05/03 02:00:10;;;;;;;5.07;2.92;;;;;;;8.44;53.10;100625.97;8686568;33;21025;-74
2022/05/03 02:05:47;;;;;;;5.00;2.85;;;;;;;8.15;53.00;100626.97;8692454;33;20200;-74
2022/05/03 02:11:04;;;;;;;5.85;3.25;;;;;;;8.15;53.01;100616.28;8696472;33;20397;-74
2022/05/03 02:16:10;;;;;;;4.00;2.78;;;;;;;8.33;52.43;100618.66;8710539;33;20934;-74
2022/05/03 02:21:19;;;;;;;5.18;2.83;;;;;;;8.30;52.93;100611.69;8710783;33;20548;-74
2022/05/03 02:26:36;;;;;;;6.10;3.05;;;;;;;8.20;52.62;100609.75;8710612;33;20671;-74
2022/05/03 02:31:51;;;;;;;6.18;2.88;;;;;;;7.88;53.75;100610.09;8712481;33;20134;-74
2022/05/03 02:37:00;;;;;;;3.60;2.95;;;;;;;7.68;53.96;100616.78;8700092;33;20294;-74
2022/05/03 02:42:05;;;;;;;3.65;2.63;;;;;;;7.41;54.06;100619.41;8701388;33;20421;-73
2022/05/03 02:47:22;;;;;;;4.53;3.15;;;;;;;7.45;53.63;100612.88;8695078;33;20987;-74
2022/05/03 02:52:30;;;;;;;3.97;2.75;;;;;;;7.69;53.77;100607.78;8692821;33;20161;-74
2022/05/03 02:57:47;;;;;;;3.35;2.50;;;;;;;7.84;53.02;100608.56;8692064;33;20424;-74
2022/05/03 03:03:21;;;;;;;3.47;2.83;;;;;;;7.83;53.12;100605.03;8703567;33;20649;-74
2022/05/03 03:08:29;;;;;;;3.30;3.00;;;;;;;7.49;53.98;100612.59;8696414;33;21074;-73
2022/05/03 03:13:50;;;;;;;4.88;3.15;;;;;;;6.86;55.26;100610.34;8692334;33;20204;-73
2022/05/03 03:18:53;;;;;;;3.28;2.65;;;;;;;7.04;55.24;100603.88;8693493;33;20131;-72
2022/05/03 03:24:01;;;;;;;4.03;2.58;;;;;;;6.87;55.41;100603.19;8696211;33;20995;-75
2022/05/03 03:29:08;;;;;;;3.67;2.80;;;;;;;6.59;55.37;100595.06;8704279;27;20149;-72
2022/05/03 03:34:13;;;;;;;4.75;2.70;;;;;;;6.78;56.36;100608.16;8694513;33;20174;-72
2022/05/03 03:39:17;;;;;;;5.22;2.70;;;;;;;6.46;55.52;100596.75;8670502;33;20274;-72
2022/05/03 03:44:20;;;;;;;3.10;2.40;;;;;;;6.26;56.49;100591.78;8627935;33;20245;-72
2022/05/03 03:49:23;;;;;;;4.05;2.40;;;;;;;5.99;57.44;100589.78;8629053;33;20546;-72
2022/05/03 03:54:28;;;;;;;4.15;3.08;;;;;;;6.20;56.74;100600.13;8635866;33;20490;-72
2022/05/03 03:59:32;;;;;;;3.35;2.75;;;;;;;6.00;56.21;100607.50;8641273;33;20506;-72
2022/05/03 04:04:38;;;;;;;3.63;2.83;;;;;;;5.80;58.04;100600.66;8645437;33;20412;-72
2022/05/03 04:09:42;;;;;;;5.07;3.35;;;;;;;6.33;57.05;100595.78;8639917;33;20599;-72
2022/05/03 04:14:46;;;;;;;3.28;2.53;;;;;;;6.43;56.01;100598.75;8635478;33;20409;-72
2022/05/03 04:19:49;;;;;;;2.85;2.55;;;;;;;6.72;56.28;100596.97;8633974;33;20143;-72
2022/05/03 04:24:54;;;;;;;5.05;3.10;;;;;;;6.67;56.32;100607.94;8610108;33;20149;-71
2022/05/03 04:29:58;;;;;;;3.47;2.80;;;;;;;6.70;55.72;100607.75;8632787;33;21007;-72
2022/05/03 04:35:02;;;;;;;3.60;2.55;;;;;;;6.79;55.11;100615.19;8634828;33;20437;-72
2022/05/03 04:40:09;;;;;;;4.00;2.70;;;;;;;6.79;55.40;100620.53;8635643;33;20659;-71
2022/05/03 04:45:12;;;;;;;4.10;2.78;;;;;;;6.75;55.66;100621.69;8635997;33;20255;-72
2022/05/03 04:50:15;;;;;;;3.47;2.63;;;;;;;7.00;55.05;100612.19;8633546;33;20148;-72
2022/05/03 04:55:19;;;;;;;3.17;2.42;;;;;;;7.39;54.29;100608.78;8636844;33;20139;-72
2022/05/03 05:00:22;;;;;;;3.30;2.50;;;;;;;7.47;54.22;100625.19;8639955;33;20612;-71
2022/05/03 05:05:25;;;;;;;3.65;3.00;;;;;;;7.60;54.29;100622.59;8616770;33;20410;-72
2022/05/03 05:10:31;;;;;;;3.38;2.38;;;;;;;7.60;54.23;100625.28;8641279;33;20479;-72
2022/05/03 05:15:34;;;;;;;4.22;2.83;;;;;;;7.51;54.42;100636.53;8640625;33;20520;-71
2022/05/03 05:20:37;;;;;;;3.70;2.65;;;;;;;7.45;55.18;100629.78;8639981;33;20550;-72
2022/05/03 05:25:42;;;;;;;3.72;2.95;;;;;;;7.44;55.28;100636.09;8639829;33;20396;-72
2022/05/03 05:30:45;;;;;;;6.10;3.42;;;;;;;7.64;55.39;100634.81;8640264;33;20165;-72
2022/05/03 05:35:49;;;;;;;3.97;3.10;;;;;;;7.63;55.50;100640.25;8635706;33;20510;-72
2022/05/03 05:40:53;;;;;;;4.97;3.17;;;;;;;7.43;56.14;100658.44;8630628;33;20192;-71
2022/05/03 05:45:56;;;;;;;6.55;4.35;;;;;;;7.71;55.49;100651.31;8629276;33;20551;-72
2022/05/03 05:50:59;;;;;;;6.00;4.43;;;;;;;7.82;54.55;100654.16;8628432;33;20453;-72
2022/05/03 05:56:07;;;;;;;5.82;4.10;;;;;;;7.80;55.62;100650.72;8631591;33;20540;-72
2022/05/03 06:01:10;;;;;;;6.88;3.78;;;;;;;8.16;55.19;100643.88;8631219;33;20188;-72
2022/05/03 06:06:13;;;;;;;5.90;3.60;;;;;;;8.54;54.10;100646.69;8633302;33;20142;-72
2022/05/03 06:11:17;;;;;;;7.05;3.55;;;;;;;8.75;53.63;100655.06;8628981;33;20281;-72
2022/05/03 06:16:20;;;;;;;8.23;4.47;;;;;;;8.96;53.36;100663.41;8627827;33;20510;-72
2022/05/03 06:21:23;;;;;;;6.00;4.25;;;;;;;9.15;53.09;100673.72;8603648;33;21288;-72
2022/05/03 06:26:28;;;;;;;8.10;4.47;;;;;;;9.37;51.26;100675.72;8601827;33;20886;-72
2022/05/03 06:31:31;;;;;;;5.75;3.75;;;;;;;9.56;50.48;100667.22;8633900;33;20756;-71
2022/05/03 06:36:35;;;;;;;5.25;4.05;;;;;;;9.75;49.95;100676.63;8634378;33;20132;-71
2022/05/03 06:41:39;;;;;;;5.68;2.85;;;;;;;10.09;49.53;100675.88;8631051;33;20289;-71
2022/05/03 06:46:43;;;;;;;3.55;2.97;;;;;;;10.31;47.78;100672.44;8628854;33;20862;-72
2022/05/03 06:51:46;;;;;;;3.05;2.17;;;;;;;10.64;46.52;100675.34;8638141;33;20192;-71
2022/05/03 06:56:51;;;;;;;3.92;2.30;;;;;;;10.77;44.78;100676.13;8618115;33;20177;-72
2022/05/03 07:01:54;;;;;;;3.97;2.40;;;;;;;10.97;43.77;100680.81;8637259;33;21139;-71
2022/05/03 07:06:57;;;;;;;3.63;2.30;;;;;;;11.20;43.02;100676.34;8636954;33;20411;-72
2022/05/03 07:12:02;;;;;;;3.25;2.10;;;;;;;11.47;43.34;100683.22;8638607;33;21036;-72
2022/05/03 07:17:06;;;;;;;4.05;2.30;;;;;;;11.82;43.71;100687.53;8633109;33;20143;-72
2022/05/03 07:27:31;;;;;;;1.83;1.65;;;;;;;12.50;40.00;100683.69;8619194;33;20685;-73
2022/05/03 07:32:34;;;;;;;0.93;0.80;;;;;;;12.74;36.19;100679.91;8645460;33;20277;-73
2022/05/03 07:37:37;;;;;;;1.20;1.20;;;;;;;12.95;37.18;100683.47;8612924;33;20143;-73
2022/05/03 07:42:41;;;;;;;1.88;1.20;;;;;;;13.10;36.67;100683.09;8638234;33;20246;-73
2022/05/03 07:47:44;;;;;;;2.42;1.10;;;;;;;13.13;37.29;100685.53;8637763;33;20415;-74
2022/05/03 07:52:47;;;;;;;2.80;1.58;;;;;;;13.15;37.99;100695.19;8614006;33;21058;-72
2022/05/03 07:57:52;;;;;;;3.22;1.73;;;;;;;13.60;37.74;100702.09;8639477;33;20560;-73
2022/05/03 08:02:55;;;;;;;4.38;1.75;;;;;;;13.94;36.72;100699.97;8636867;33;20234;-73
2022/05/03 08:07:58;;;;;;;2.13;1.67;;;;;;;14.07;37.78;100703.25;8636444;33;20143;-72
2022/05/03 08:13:03;;;;;;;5.35;2.78;;;;;;;14.23;36.73;100709.94;8637525;33;20568;-73
2022/05/03 08:18:07;;;;;;;5.15;2.75;;;;;;;14.31;37.04;100710.94;8636068;33;20585;-73
2022/05/03 08:23:10;;;;;;;2.53;1.60;;;;;;;14.46;37.31;100708.72;8635061;33;20238;-73
2022/05/03 08:28:14;;;;;;;2.03;1.60;;;;;;;14.88;36.55;100708.41;8635752;33;20238;-73
2022/05/03 08:33:17;;;;;;;2.90;1.75;;;;;;;15.18;35.80;100715.47;8636275;33;20417;-73
2022/05/03 08:43:42;;;;;;;2.63;1.73;;;;;;;15.52;35.11;100724.94;8641868;33;20151;-73
2022/05/03 08:48:47;;;;;;;3.38;1.90;;;;;;;15.74;35.04;100724.56;8644387;33;20537;-73
2022/05/03 08:53:56;;;;;;;2.95;1.90;;;;;;;15.84;34.92;100716.38;8643035;33;20897;-73
2022/05/03 08:59:01;;;;;;;3.22;2.00;;;;;;;16.12;35.02;100728.91;8643037;33;20595;-72
2022/05/03 09:04:06;;;;;;;2.40;1.90;;;;;;;16.34;35.03;100730.34;8640973;33;20954;-73
2022/05/03 09:09:12;;;;;;;2.88;2.20;;;;;;;16.32;34.21;100718.00;8635867;33;20865;-73
2022/05/03 09:14:36;;;;;;;2.45;2.25;;;;;;;16.53;33.90;100717.66;8646898;33;20203;-74
2022/05/03 09:19:39;;;;;;;4.93;2.90;;;;;;;16.59;34.57;100712.50;8639728;33;20383;-74
2022/05/03 09:24:56;;;;;;;3.35;2.40;;;;;;;17.00;34.60;100707.41;8632464;33;20158;-73
2022/05/03 09:30:07;;;;;;;3.45;2.70;;;;;;;17.09;33.87;100711.03;8644943;27;20488;-75
2022/05/03 09:35:36;;;;;;;3.42;2.80;;;;;;;17.50;34.37;100705.88;8571649;33;20148;-77
2022/05/03 09:40:42;;;;;;;3.53;2.95;;;;;;;17.07;33.57;100704.91;8604008;33;20481;-75
2022/05/03 09:45:46;;;;;;;4.55;3.03;;;;;;;17.30;34.92;100710.66;8627967;33;20143;-75
2022/05/03 09:50:50;;;;;;;5.05;3.13;;;;;;;17.43;34.78;100707.53;8629581;33;20411;-74
2022/05/03 09:55:53;;;;;;;6.38;3.40;;;;;;;17.21;36.55;100698.06;8633507;33;20602;-76
2022/05/03 10:00:58;;;;;;;3.72;2.78;;;;;;;17.75;36.24;100698.69;8629607;33;20272;-74
2022/05/03 10:06:01;;;;;;;4.55;2.88;;;;;;;18.21;34.30;100701.03;8630459;33;20154;-78
2022/05/03 10:11:05;;;;;;;4.80;3.38;;;;;;;18.42;34.13;100686.97;8632337;33;20250;-75
2022/05/03 10:21:35;;;;;;;5.20;3.33;;;;;;;18.87;34.84;100680.19;8629102;33;20403;-75
2022/05/03 10:27:05;;;;;;;6.50;3.80;;;;;;;19.23;34.52;100683.41;8629639;33;20456;-75
2022/05/03 10:32:15;;;;;;;7.15;4.70;;;;;;;17.56;35.54;100678.06;8633797;33;20139;-75
2022/05/03 10:37:21;;;;;;;6.85;4.82;;;;;;;18.57;35.50;100685.31;8631934;33;20419;-74
2022/05/03 10:42:26;;;;;;;7.10;4.80;;;;;;;18.48;35.14;100683.59;8630819;33;20731;-76
2022/05/03 10:47:48;;;;;;;7.70;5.38;;;;;;;18.29;35.97;100669.31;8632183;33;20675;-75
2022/05/03 10:53:27;;;;;;;7.90;5.70;;;;;;;17.90;37.94;100664.41;8630811;33;20410;-74
2022/05/03 10:58:32;;;;;;;7.88;5.60;;;;;;;18.94;36.39;100654.00;8634539;33;20284;-75
2022/05/03 11:03:38;;;;;;;8.90;5.88;;;;;;;18.90;36.21;100653.50;8641340;33;20489;-75
2022/05/03 11:09:09;;;;;;;7.85;5.90;;;;;;;19.37;36.27;100647.25;8642953;33;20422;-75
2022/05/03 11:14:50;;;;;;;8.23;6.45;;;;;;;20.22;35.33;100640.22;8643379;33;20930;-75
2022/05/03 11:20:02;;;;;;;10.40;6.05;;;;;;;19.86;34.76;100648.97;8642414;33;20140;-76
2022/05/03 11:25:13;;;;;;;7.20;5.20;;;;;;;20.77;34.04;100639.09;8641771;33;20143;-76
2022/05/03 11:30:18;;;;;;;7.05;4.80;;;;;;;21.00;33.89;100631.66;8639015;33;20403;-75
2022/05/03 11:35:23;;;;;;;6.80;4.80;;;;;;;18.80;33.81;100639.22;8641175;33;20147;-75
2022/05/03 11:40:27;;;;;;;6.70;4.70;;;;;;;20.14;34.01;100630.19;8649686;33;20414;-75
2022/05/03 11:45:31;;;;;;;6.95;5.10;;;;;;;20.23;34.00;100631.00;8648606;33;20140;-78
2022/05/03 11:56:09;;;;;;;7.60;5.47;;;;;;;20.08;34.06;100622.75;8546490;33;20437;-75
2022/05/03 12:01:16;;;;;;;7.13;5.45;;;;;;;21.30;32.60;100622.69;8641213;33;20444;-75
2022/05/03 12:06:19;;;;;;;8.07;6.13;;;;;;;21.31;31.93;100619.78;8642268;33;20216;-74
2022/05/03 12:11:24;;;;;;;10.85;5.65;;;;;;;20.95;33.82;100608.69;8642743;33;20491;-76
2022/05/03 12:16:29;;;;;;;10.73;7.82;;;;;;;21.48;32.53;100604.03;8675563;33;20431;-75
2022/05/03 12:21:43;;;;;;;11.82;6.93;;;;;;;21.41;33.68;100609.38;8654743;33;20242;-74
2022/05/03 12:26:46;;;;;;;8.45;6.45;;;;;;;21.44;33.75;100609.00;8655144;33;20246;-75
2022/05/03 12:31:50;;;;;;;11.00;7.05;;;;;;;21.06;32.67;100597.34;8658904;33;20186;-75
2022/05/03 12:37:03;;;;;;;9.15;6.20;;;;;;;19.80;35.30;100590.56;8658337;33;20419;-74
2022/05/03 12:42:11;;;;;;;11.20;6.47;;;;;;;21.67;34.18;100580.69;8663793;33;20520;-75
2022/05/03 12:47:16;;;;;;;8.60;6.53;;;;;;;22.34;31.94;100568.56;8664817;33;20447;-75
2022/05/03 12:52:20;;;;;;;8.07;6.00;;;;;;;23.15;32.28;100579.94;8661166;33;20975;-74
2022/05/03 13:02:44;;;;;;;9.70;5.88;;;;;;;23.30;31.39;100562.50;8656438;33;20760;-75
2022/05/03 13:07:47;;;;;;;10.23;7.18;;;;;;;24.05;30.40;100558.75;8655212;33;20419;-75
2022/05/03 13:12:52;;;;;;;8.43;6.25;;;;;;;22.55;31.75;100551.28;8643242;33;20222;-75
2022/05/03 13:17:57;;;;;;;8.73;7.15;;;;;;;20.84;33.99;100560.00;8653400;33;20967;-75
2022/05/03 13:23:00;;;;;;;10.05;6.93;;;;;;;19.63;35.66;100559.81;8640962;33;20139;-76
2022/05/03 13:28:05;;;;;;;10.80;6.63;;;;;;;19.90;35.86;100544.81;8639652;33;20582;-74
2022/05/03 13:33:10;;;;;;;7.90;6.10;;;;;;;21.77;34.10;100537.50;8640304;33;20948;-75
2022/05/03 13:43:34;;;;;;;8.23;6.30;;;;;;;21.83;32.57;100530.41;8640121;33;20422;-74
2022/05/03 13:48:39;;;;;;;9.85;7.22;;;;;;;19.21;35.72;100539.25;8641523;33;20409;-74
2022/05/03 13:53:42;;;;;;;10.80;7.25;;;;;;;19.14;36.75;100532.81;8637749;33;20777;-74
2022/05/03 13:58:47;;;;;;;8.70;6.25;;;;;;;19.84;35.62;100529.19;8636239;33;20305;-73
2022/05/03 14:03:52;;;;;;;8.43;6.70;;;;;;;21.60;34.26;100533.31;8638408;33;20147;-74
2022/05/03 14:08:55;;;;;;;6.97;5.90;;;;;;;22.50;32.75;100543.69;8637811;33;20309;-73
2022/05/03 14:14:00;;;;;;;14.82;6.65;;;;;;;21.05;33.91;100534.72;8637653;33;20150;-74
2022/05/03 14:19:04;;;;;;;9.45;6.50;;;;;;;21.65;34.23;100531.69;8638471;33;20643;-74
2022/05/03 14:24:08;;;;;;;8.88;6.07;;;;;;;21.75;34.16;100536.88;8638490;33;20424;-75
2022/05/03 14:29:12;;;;;;;7.95;6.45;;;;;;;20.56;35.55;100530.63;8636755;33;21002;-74
2022/05/03 14:34:16;;;;;;;7.47;6.57;;;;;;;19.05;37.19;100530.28;8639448;33;20439;-75
2022/05/03 14:39:20;;;;;;;7.63;6.15;;;;;;;19.17;38.06;100528.88;8639013;33;20135;-75
2022/05/03 14:44:38;;;;;;;11.07;6.22;;;;;;;19.43;37.38;100523.97;8636999;33;20426;-76
2022/05/03 14:49:43;;;;;;;9.18;6.15;;;;;;;19.22;36.92;100519.13;8636021;33;20432;-76
2022/05/03 14:54:49;;;;;;;8.73;5.82;;;;;;;19.57;38.01;100521.56;8638539;33;20907;-74
2022/05/03 15:05:17;;;;;;;9.82;6.53;;;;;;;21.05;33.77;100516.47;8639796;33;20273;-75
2022/05/03 15:10:20;;;;;;;9.65;7.03;;;;;;;19.87;37.86;100514.34;8634775;33;20238;-75
2022/05/03 15:15:25;;;;;;;11.75;7.13;;;;;;;19.24;39.47;100521.69;8633841;33;20593;-75
2022/05/03 15:20:32;;;;;;;12.73;7.35;;;;;;;19.00;39.77;100531.66;8634615;33;20170;-74
2022/05/03 15:25:36;;;;;;;11.50;7.00;;;;;;;18.74;40.08;100521.00;8636900;33;20151;-75
2022/05/03 15:30:39;;;;;;;13.25;7.82;;;;;;;18.45;40.54;100521.59;8674191;27;20387;-73
2022/05/03 15:35:44;;;;;;;12.48;7.10;;;;;;;18.22;41.35;100523.31;8696752;33;20424;-73
2022/05/03 15:40:47;;;;;;;10.73;6.93;;;;;;;18.16;40.56;100524.00;8730238;32;20540;-73
2022/05/03 15:45:51;;;;;;;10.85;6.40;;;;;;;18.41;40.37;100519.41;8758375;32;20444;-73
2022/05/03 15:50:57;;;;;;;11.05;6.55;;;;;;;18.68;39.56;100515.44;8761043;32;20403;-73
2022/05/03 15:56:00;;;;;;;8.32;6.30;;;;;;;19.08;38.81;100513.59;8763155;32;20265;-72
2022/05/03 16:01:04;;;;;;;10.82;7.40;;;;;;;19.12;40.29;100510.38;8763804;32;20290;-73
2022/05/03 16:06:09;;;;;;;12.52;7.40;;;;;;;18.61;41.53;100515.25;8773568;32;20558;-73
2022/05/03 16:11:12;;;;;;;12.30;8.40;;;;;;;18.25;42.31;100522.97;8777717;32;20489;-73
2022/05/03 16:16:15;;;;;;;14.93;7.93;;;;;;;18.72;42.42;100527.66;8778315;32;21055;-73
2022/05/03 16:21:20;;;;;;;13.65;9.15;;;;;;;19.20;40.51;100518.50;8781828;32;20146;-73
2022/05/03 16:26:23;;;;;;;11.48;7.97;;;;;;;18.63;41.75;100517.81;8781686;32;20400;-72
2022/05/03 16:31:26;;;;;;;13.00;7.60;;;;;;;18.30;42.92;100528.75;8782506;32;20543;-73
2022/05/03 16:42:10;;;;;;;13.23;9.18;;;;;;;17.27;44.69;100523.66;8769187;32;20408;-73
2022/05/03 16:47:15;;;;;;;13.50;9.98;;;;;;;16.91;45.60;100531.13;8767248;32;20534;-72
2022/05/03 16:52:22;;;;;;;15.18;9.82;;;;;;;16.84;45.47;100532.78;8765960;32;20530;-73
2022/05/03 16:57:25;;;;;;;13.13;9.52;;;;;;;16.61;45.69;100521.63;8763893;32;20230;-72
2022/05/03 17:02:29;;;;;;;16.55;9.25;;;;;;;16.52;46.12;100524.31;8762766;32;20589;-71
2022/05/03 17:07:33;;;;;;;13.40;9.75;;;;;;;16.38;46.49;100529.47;8766868;32;20198;-71
2022/05/03 17:12:38;;;;;;;13.60;8.77;;;;;;;16.26;46.46;100536.97;8768680;32;20425;-71
2022/05/03 17:17:41;;;;;;;14.95;8.52;;;;;;;16.11;47.18;100537.53;8764191;32;20464;-72
2022/05/03 17:22:47;;;;;;;13.23;8.38;;;;;;;15.99;47.45;100535.19;8734583;32;20395;-72
2022/05/03 17:27:50;;;;;;;13.00;8.07;;;;;;;15.88;47.53;100534.47;8758285;32;20173;-72
2022/05/03 17:32:54;;;;;;;12.68;7.28;;;;;;;15.86;47.98;100546.44;8760837;32;20308;-72
2022/05/03 17:37:59;;;;;;;11.13;7.43;;;;;;;15.66;48.18;100561.97;8756742;32;20420;-72
2022/05/03 17:43:02;;;;;;;11.65;7.43;;;;;;;15.35;48.41;100551.50;8757724;32;20699;-72
2022/05/03 17:48:05;;;;;;;13.27;7.63;;;;;;;15.26;48.67;100560.50;8733019;32;20177;-71
2022/05/03 17:58:33;;;;;;;13.65;7.80;;;;;;;15.07;49.03;100557.88;8758253;32;20232;-72
2022/05/03 18:03:36;;;;;;;11.13;7.10;;;;;;;14.80;49.48;100559.56;8759049;32;20336;-71
2022/05/03 18:08:42;;;;;;;9.40;6.53;;;;;;;14.89;49.88;100561.38;8758431;32;20430;-71
2022/05/03 18:13:47;;;;;;;12.20;6.95;;;;;;;14.81;49.40;100566.69;8734724;32;21064;-71
2022/05/03 18:18:49;;;;;;;13.75;7.05;;;;;;;14.82;49.84;100554.84;8732798;32;20971;-71
2022/05/03 18:23:54;;;;;;;12.35;6.65;;;;;;;14.69;49.62;100555.16;8755304;32;20925;-72
2022/05/03 18:28:57;;;;;;;11.05;6.15;;;;;;;14.44;49.18;100563.91;8756265;32;20391;-72
2022/05/03 18:34:00;;;;;;;10.45;6.65;;;;;;;14.21;50.05;100566.06;8757560;32;20409;-73
2022/05/03 18:39:05;;;;;;;12.18;5.28;;;;;;;14.02;50.29;100565.06;8757443;32;20506;-72
2022/05/03 18:44:12;;;;;;;10.80;6.22;;;;;;;13.76;51.14;100566.63;8757137;32;20418;-71
2022/05/03 18:49:15;;;;;;;12.88;6.43;;;;;;;13.64;51.64;100582.09;8759755;32;20431;-71
2022/05/03 18:59:40;;;;;;;9.98;5.85;;;;;;;13.40;51.94;100582.47;8761584;32;20581;-72
2022/05/03 19:04:43;;;;;;;10.60;5.57;;;;;;;13.27;52.53;100588.94;8761997;32;20451;-72
2022/05/03 19:09:47;;;;;;;9.27;5.57;;;;;;;13.33;52.60;100587.53;8761962;32;20415;-72
2022/05/03 19:14:51;;;;;;;9.10;5.35;;;;;;;13.24;52.43;100591.03;8759682;32;20524;-72
2022/05/03 19:19:54;;;;;;;8.10;5.07;;;;;;;13.03;53.03;100602.75;8724254;32;20302;-72
2022/05/03 19:30:35;;;;;;;8.73;5.50;;;;;;;12.89;53.73;100627.38;8758928;32;21032;-72
2022/05/03 19:35:40;;;;;;;9.00;5.18;;;;;;;12.85;53.52;100622.38;8757584;32;20142;-72
2022/05/03 19:40:52;;;;;;;6.57;4.75;;;;;;;12.68;53.77;100621.16;8756392;32;20149;-73
2022/05/03 19:45:55;;;;;;;8.32;5.28;;;;;;;12.38;54.24;100629.00;8755059;32;20408;-72
2022/05/03 19:50:58;;;;;;;7.35;5.20;;;;;;;12.30;54.54;100628.81;8755242;32;20412;-72
2022/05/03 19:56:03;;;;;;;7.68;4.65;;;;;;;12.25;54.61;100632.84;8758291;32;21034;-72
2022/05/03 20:01:06;;;;;;;7.72;5.15;;;;;;;12.14;54.73;100623.81;8761322;32;20677;-72
2022/05/03 20:06:09;;;;;;;10.25;5.97;;;;;;;12.05;54.68;100627.28;8762601;32;20146;-72
2022/05/03 20:11:13;;;;;;;9.25;5.15;;;;;;;11.87;54.54;100639.59;8753328;32;20629;-71
2022/05/03 20:16:16;;;;;;;8.55;4.63;;;;;;;11.69;55.13;100647.34;8736734;32;21115;-72
2022/05/03 20:21:20;;;;;;;9.75;5.10;;;;;;;11.70;55.06;100649.91;8761957;32;20968;-73
2022/05/03 20:26:24;;;;;;;7.47;4.38;;;;;;;11.50;55.42;100654.22;8761231;32;20240;-72
2022/05/03 20:31:27;;;;;;;8.40;4.68;;;;;;;11.39;55.58;100653.38;8761742;32;20519;-72
2022/05/03 20:36:30;;;;;;;8.45;4.95;;;;;;;11.30;56.04;100654.97;8761124;32;20461;-72
2022/05/03 20:41:35;;;;;;;6.82;4.45;;;;;;;11.22;56.36;100669.03;8761307;32;20616;-72
2022/05/03 20:51:58;;;;;;;14.48;5.82;;;;;;;11.13;57.09;100669.72;8737883;32;20546;-73
2022/05/03 20:57:03;;;;;;;9.00;5.20;;;;;;;11.14;57.23;100678.69;8756894;32;21186;-73
2022/05/03 21:02:06;;;;;;;6.65;4.97;;;;;;;11.17;57.00;100683.81;8760155;32;20214;-73
2022/05/03 21:07:09;;;;;;;10.48;5.20;;;;;;;11.21;57.09;100691.50;8773848;32;20184;-73
2022/05/03 21:12:15;;;;;;;6.35;5.00;;;;;;;11.19;56.79;100687.22;8750564;32;20992;-73
2022/05/03 21:17:18;;;;;;;11.95;5.20;;;;;;;11.25;56.94;100684.06;8760464;32;20420;-72
2022/05/03 21:22:22;;;;;;;8.75;5.53;;;;;;;11.13;56.71;100688.56;8760158;32;20403;-73
2022/05/03 21:27:26;;;;;;;9.55;5.25;;;;;;;11.07;57.14;100689.00;8752742;32;20220;-73
2022/05/03 21:32:29;;;;;;;6.80;4.70;;;;;;;11.02;57.26;100683.13;8704191;27;20583;-74
2022/05/03 21:37:32;;;;;;;6.90;4.78;;;;;;;10.97;57.24;100688.00;8604642;33;20752;-74
2022/05/03 21:42:37;;;;;;;8.85;4.85;;;;;;;10.78;58.19;100686.75;8637610;33;20662;-74
2022/05/03 21:47:40;;;;;;;8.00;4.70;;;;;;;10.73;58.01;100699.69;8638179;33;20632;-74
2022/05/03 21:52:43;;;;;;;10.02;5.15;;;;;;;10.66;58.19;100703.81;8635913;33;20949;-74
2022/05/03 21:57:48;;;;;;;11.25;5.20;;;;;;;10.48;58.36;100697.19;8634197;33;20520;-74
2022/05/03 22:02:51;;;;;;;10.10;4.82;;;;;;;10.45;58.65;100710.81;8634681;33;20186;-73
2022/05/03 22:07:54;;;;;;;9.45;5.00;;;;;;;10.34;59.00;100704.44;8635294;33;20710;-74
2022/05/03 22:12:58;;;;;;;11.07;5.88;;;;;;;10.35;58.80;100714.19;8638933;33;20770;-74
2022/05/03 22:18:02;;;;;;;10.02;4.93;;;;;;;10.33;58.86;100705.38;8637952;33;20416;-74
2022/05/03 22:23:09;;;;;;;11.63;6.13;;;;;;;10.34;59.08;100707.13;8643361;33;20421;-74
2022/05/03 22:28:14;;;;;;;11.38;4.90;;;;;;;10.22;58.94;100705.34;8641974;33;20263;-74
2022/05/03 22:33:17;;;;;;;12.20;5.45;;;;;;;10.29;59.00;100708.44;8639161;33;20196;-74
2022/05/03 22:38:20;;;;;;;13.32;5.55;;;;;;;10.33;58.81;100705.38;8638110;33;20196;-73
2022/05/03 22:43:24;;;;;;;10.82;6.07;;;;;;;10.16;59.29;100705.81;8639953;33;20184;-74
2022/05/03 22:48:28;;;;;;;9.75;5.45;;;;;;;10.15;59.49;100709.47;8645362;33;20430;-73
2022/05/03 22:53:31;;;;;;;10.75;5.50;;;;;;;10.12;59.75;100713.25;8647620;33;20404;-73
2022/05/03 22:58:35;;;;;;;8.80;5.50;;;;;;;9.92;60.30;100713.81;8643359;33;20301;-73
2022/05/03 23:03:38;;;;;;;10.15;5.50;;;;;;;9.88;60.48;100704.31;8642207;33;20166;-74
2022/05/03 23:08:41;;;;;;;11.15;5.30;;;;;;;9.85;60.18;100707.19;8640002;33;20199;-74
2022/05/03 23:13:45;;;;;;;11.77;5.32;;;;;;;9.77;60.39;100701.50;8640340;33;20620;-74
2022/05/03 23:18:48;;;;;;;10.10;5.35;;;;;;;9.70;60.38;100710.00;8636239;33;21104;-73
2022/05/03 23:23:51;;;;;;;8.95;5.50;;;;;;;9.56;60.29;100707.44;8637987;33;20461;-74
2022/05/03 23:28:56;;;;;;;12.60;5.45;;;;;;;9.42;60.27;100713.78;8636684;33;20586;-73
2022/05/03 23:35:06;;;;;;;15.77;5.72;;;;;;;9.23;60.58;100714.22;8637605;33;20143;-75
2022/05/03 23:39:23;;;;;;;10.98;5.75;;;;;;;9.20;60.99;100710.91;8640039;33;20229;-74
2022/05/03 23:44:28;;;;;;;14.43;6.22;;;;;;;9.10;61.30;100708.00;8641522;33;20514;-75
2022/05/03 23:49:31;;;;;;;9.95;5.40;;;;;;;9.17;61.12;100705.78;8637544;33;20242;-75
2022/05/03 23:54:34;;;;;;;12.98;5.32;;;;;;;9.14;60.88;100706.00;8635822;33;20271;-75
2022/05/03 23:59:38;;;;;;;11.93;5.45;;;;;;;8.96;61.26;100695.56;8635847;33;20685;-74
